Pacific Beryl — 9V9809 — position and weather

sailwx.info

Track history (hours):
 
Tides and Currents Weather Stations Pressure Air Temp Water Temp Dewpoint Dewpoint Depression Visibility Wind Speed Wind Dir Waves Ship Positions

Pacific Beryl

Last reported at 2014-Sep-14 22:21 UTC. Time now 2014-Nov-01 02:40 UTC.
Position N 29°57' W 090°19'.
Warning: this ship's position is 47 days out of date.

Length 182 m; draft 11.4 m.

Type: Tanker. MMSI: 566366000.

Date/timePositionNaut miles runAvg speedWind from/ knotsBaromVisibWave heightAir tempDewpointWater temp
2014-Sep-14 22:21N 29°57' W 090°19'6 8.0
2014-Sep-14 21:33N 29°60' W 090°25'8 8.5
2014-Sep-14 20:33N 30°03' W 090°34'2 1.5
2014-Sep-14 19:31N 30°03' W 090°36'0 0.0
2014-Sep-14 18:31N 30°03' W 090°36'0 0.0
2014-Sep-14 17:31N 30°03' W 090°36'0 0.0
2014-Sep-14 16:29N 30°03' W 090°36'0 0.0
2014-Sep-14 15:32N 30°03' W 090°36'0 0.0
2014-Sep-14 12:31N 30°03' W 090°36'0 0.0
2014-Sep-14 11:29N 30°03' W 090°36'0 0.0
2014-Sep-14 10:32N 30°03' W 090°36'0 0.0
2014-Sep-14 09:31N 30°03' W 090°36'0 0.0
2014-Sep-14 08:31N 30°03' W 090°36'0 0.0
2014-Sep-14 07:32N 30°03' W 090°36'0 0.0
2014-Sep-14 06:29N 30°03' W 090°36'0 0.0
2014-Sep-14 05:32N 30°03' W 090°36'0 0.0
2014-Sep-14 04:31N 30°03' W 090°36'0 0.0
2014-Sep-14 03:31N 30°03' W 090°36'0 0.0
2014-Sep-14 02:32N 30°03' W 090°36'0 0.0
2014-Sep-14 01:31N 30°03' W 090°36'0 0.0
2014-Sep-13 21:28N 30°03' W 090°36'0 0.0
2014-Sep-13 20:32N 30°03' W 090°36'0 0.0
2014-Sep-13 19:32N 30°03' W 090°36'0 0.0
2014-Sep-13 18:32N 30°03' W 090°36'0 0.0
2014-Sep-13 17:23N 30°03' W 090°36'0 0.0
2014-Sep-13 16:23N 30°03' W 090°36'0 0.0
2014-Sep-13 15:32N 30°03' W 090°36'0 0.0
2014-Sep-13 14:25N 30°03' W 090°36'0 0.0
2014-Sep-13 13:31N 30°03' W 090°36'0 0.3
2014-Sep-13 12:33N 30°03' W 090°36'7 6.9
2014-Sep-13 11:33N 30°00' W 090°28'2 0.3
2014-Sep-13 05:19N 29°60' W 090°26'0 0.0
2014-Sep-13 04:07N 29°60' W 090°26'0 0.0
2014-Sep-13 03:25N 29°60' W 090°26'0 0.0
2014-Sep-13 02:28N 29°60' W 090°26'0 0.0
2014-Sep-13 01:16N 29°60' W 090°26'0 0.0
2014-Sep-13 00:32N 29°60' W 090°26'3 3.2
2014-Sep-12 23:31N 29°57' W 090°24'9 9.2
2014-Sep-12 22:29N 29°56' W 090°13'  
Track history (hours):
 
Tides and Currents Weather Stations Pressure Air Temp Water Temp Dewpoint Dewpoint Depression Visibility Wind Speed Wind Dir Waves Ship Positions

Pacific Beryl

Last reported at 2014-Sep-14 22:21 UTC. Time now 2014-Nov-01 02:40 UTC.
Position N 29°57' W 090°19'.
Warning: this ship's position is 47 days out of date.

Length 182 m; draft 11.4 m.

Type: Tanker. MMSI: 566366000.

Date/timePositionNaut miles runAvg speedWind from/ knotsBaromVisibWave heightAir tempDewpointWater temp
2014-Sep-14 22:21N 29°57' W 090°19'6 8.0
2014-Sep-14 21:33N 29°60' W 090°25'8 8.5
2014-Sep-14 20:33N 30°03' W 090°34'2 1.5
2014-Sep-14 19:31N 30°03' W 090°36'0 0.0
2014-Sep-14 18:31N 30°03' W 090°36'0 0.0
2014-Sep-14 17:31N 30°03' W 090°36'0 0.0
2014-Sep-14 16:29N 30°03' W 090°36'0 0.0
2014-Sep-14 15:32N 30°03' W 090°36'0 0.0
2014-Sep-14 12:31N 30°03' W 090°36'0 0.0
2014-Sep-14 11:29N 30°03' W 090°36'0 0.0
2014-Sep-14 10:32N 30°03' W 090°36'0 0.0
2014-Sep-14 09:31N 30°03' W 090°36'0 0.0
2014-Sep-14 08:31N 30°03' W 090°36'0 0.0
2014-Sep-14 07:32N 30°03' W 090°36'0 0.0
2014-Sep-14 06:29N 30°03' W 090°36'0 0.0
2014-Sep-14 05:32N 30°03' W 090°36'0 0.0
2014-Sep-14 04:31N 30°03' W 090°36'0 0.0
2014-Sep-14 03:31N 30°03' W 090°36'0 0.0
2014-Sep-14 02:32N 30°03' W 090°36'0 0.0
2014-Sep-14 01:31N 30°03' W 090°36'0 0.0
2014-Sep-13 21:28N 30°03' W 090°36'0 0.0
2014-Sep-13 20:32N 30°03' W 090°36'0 0.0
2014-Sep-13 19:32N 30°03' W 090°36'0 0.0
2014-Sep-13 18:32N 30°03' W 090°36'0 0.0
2014-Sep-13 17:23N 30°03' W 090°36'0 0.0
2014-Sep-13 16:23N 30°03' W 090°36'0 0.0
2014-Sep-13 15:32N 30°03' W 090°36'0 0.0
2014-Sep-13 14:25N 30°03' W 090°36'0 0.0
2014-Sep-13 13:31N 30°03' W 090°36'0 0.3
2014-Sep-13 12:33N 30°03' W 090°36'7 6.9
2014-Sep-13 11:33N 30°00' W 090°28'2 0.3
2014-Sep-13 05:19N 29°60' W 090°26'0 0.0
2014-Sep-13 04:07N 29°60' W 090°26'0 0.0
2014-Sep-13 03:25N 29°60' W 090°26'0 0.0
2014-Sep-13 02:28N 29°60' W 090°26'0 0.0
2014-Sep-13 01:16N 29°60' W 090°26'0 0.0
2014-Sep-13 00:32N 29°60' W 090°26'3 3.2
2014-Sep-12 23:31N 29°57' W 090°24'9 9.2
2014-Sep-12 22:29N 29°56' W 090°13'  

Dump ship's entire track history